Terminal Aerodrome Forecast
Issued by NWS

Current Version | Previous Version | Graphics & Text | Print | Product List | Glossary On
Versions: 1 2 3 4 5 6 7 8 9 10 11 12 13 14 15 16 17 18
000
FTUS41 KPBZ 272300
TAFMGW
TAF
KMGW 272323Z 2800/2824 34008KT P6SM -SHSN SCT020 BKN035
      TEMPO 2800/2802 3SM -SHSN BKN020
     FM280400 32007KT P6SM BKN035
     FM281200 30008KT P6SM SCT035=

USA.gov is the U.S. government's official web portal to all federal, state and local government web resources and services.